sensor_id;sensor_type;location;lat;lon;timestamp;P1;durP1;ratioP1;P2;durP2;ratioP2
73168;SDS011;61379;59.732;30.468;2023-12-22T00:02:08;16.80;;;11.15;;
73168;SDS011;61379;59.732;30.468;2023-12-22T00:04:35;15.77;;;10.25;;
73168;SDS011;61379;59.732;30.468;2023-12-22T00:07:02;14.00;;;10.40;;
73168;SDS011;61379;59.732;30.468;2023-12-22T00:09:29;14.20;;;9.85;;
73168;SDS011;61379;59.732;30.468;2023-12-22T00:11:56;16.67;;;10.95;;
73168;SDS011;61379;59.732;30.468;2023-12-22T00:14:25;10.90;;;9.45;;
73168;SDS011;61379;59.732;30.468;2023-12-22T00:16:51;12.70;;;10.43;;
73168;SDS011;61379;59.732;30.468;2023-12-22T00:19:18;14.20;;;10.57;;
73168;SDS011;61379;59.732;30.468;2023-12-22T00:21:45;14.10;;;10.85;;
73168;SDS011;61379;59.732;30.468;2023-12-22T00:24:12;16.63;;;11.25;;
73168;SDS011;61379;59.732;30.468;2023-12-22T00:26:39;12.98;;;9.30;;
73168;SDS011;61379;59.732;30.468;2023-12-22T00:29:06;15.45;;;10.85;;
73168;SDS011;61379;59.732;30.468;2023-12-22T00:31:35;12.85;;;10.38;;
73168;SDS011;61379;59.732;30.468;2023-12-22T00:34:02;15.68;;;9.60;;
73168;SDS011;61379;59.732;30.468;2023-12-22T00:36:28;15.25;;;10.45;;
73168;SDS011;61379;59.732;30.468;2023-12-22T00:38:55;12.23;;;9.15;;
73168;SDS011;61379;59.732;30.468;2023-12-22T00:41:22;15.60;;;10.55;;
73168;SDS011;61379;59.732;30.468;2023-12-22T00:43:49;16.65;;;10.02;;
73168;SDS011;61379;59.732;30.468;2023-12-22T00:46:16;13.90;;;9.30;;
73168;SDS011;61379;59.732;30.468;2023-12-22T00:48:44;11.85;;;9.27;;
73168;SDS011;61379;59.732;30.468;2023-12-22T00:51:11;15.82;;;9.52;;
73168;SDS011;61379;59.732;30.468;2023-12-22T00:53:38;11.88;;;9.90;;
73168;SDS011;61379;59.732;30.468;2023-12-22T00:56:05;12.88;;;9.15;;
73168;SDS011;61379;59.732;30.468;2023-12-22T00:58:32;13.65;;;8.65;;
73168;SDS011;61379;59.732;30.468;2023-12-22T01:00:59;14.30;;;9.70;;
73168;SDS011;61379;59.732;30.468;2023-12-22T01:03:26;14.38;;;9.68;;
73168;SDS011;61379;59.732;30.468;2023-12-22T01:05:54;17.45;;;10.25;;
73168;SDS011;61379;59.732;30.468;2023-12-22T01:08:21;17.67;;;10.63;;
73168;SDS011;61379;59.732;30.468;2023-12-22T01:10:48;24.00;;;12.43;;
73168;SDS011;61379;59.732;30.468;2023-12-22T01:13:15;26.65;;;12.65;;
73168;SDS011;61379;59.732;30.468;2023-12-22T01:15:42;26.45;;;13.65;;
73168;SDS011;61379;59.732;30.468;2023-12-22T01:18:09;28.60;;;14.68;;
73168;SDS011;61379;59.732;30.468;2023-12-22T01:20:36;36.03;;;15.05;;
73168;SDS011;61379;59.732;30.468;2023-12-22T01:23:04;36.03;;;14.77;;
73168;SDS011;61379;59.732;30.468;2023-12-22T01:25:31;37.35;;;14.27;;
73168;SDS011;61379;59.732;30.468;2023-12-22T01:27:58;29.15;;;14.05;;
73168;SDS011;61379;59.732;30.468;2023-12-22T01:30:25;34.30;;;13.52;;
73168;SDS011;61379;59.732;30.468;2023-12-22T01:32:52;20.80;;;13.07;;
73168;SDS011;61379;59.732;30.468;2023-12-22T01:35:19;40.45;;;15.43;;
73168;SDS011;61379;59.732;30.468;2023-12-22T01:37:45;26.23;;;12.60;;
73168;SDS011;61379;59.732;30.468;2023-12-22T01:40:15;36.00;;;14.45;;
73168;SDS011;61379;59.732;30.468;2023-12-22T01:42:42;27.50;;;13.68;;
73168;SDS011;61379;59.732;30.468;2023-12-22T01:45:10;24.88;;;12.68;;
73168;SDS011;61379;59.732;30.468;2023-12-22T01:47:37;24.42;;;12.32;;
73168;SDS011;61379;59.732;30.468;2023-12-22T01:50:05;25.23;;;12.00;;
73168;SDS011;61379;59.732;30.468;2023-12-22T01:52:32;21.15;;;12.82;;
73168;SDS011;61379;59.732;30.468;2023-12-22T01:54:59;23.83;;;13.27;;
73168;SDS011;61379;59.732;30.468;2023-12-22T01:57:27;20.08;;;11.32;;
73168;SDS011;61379;59.732;30.468;2023-12-22T01:59:54;21.48;;;12.45;;
73168;SDS011;61379;59.732;30.468;2023-12-22T02:02:21;19.33;;;11.38;;
73168;SDS011;61379;59.732;30.468;2023-12-22T02:04:48;19.60;;;11.63;;
73168;SDS011;61379;59.732;30.468;2023-12-22T02:07:15;19.52;;;13.00;;
73168;SDS011;61379;59.732;30.468;2023-12-22T02:09:42;17.42;;;11.15;;
73168;SDS011;61379;59.732;30.468;2023-12-22T02:12:09;26.65;;;12.48;;
73168;SDS011;61379;59.732;30.468;2023-12-22T02:14:38;19.73;;;11.90;;
73168;SDS011;61379;59.732;30.468;2023-12-22T02:17:07;15.27;;;11.23;;
73168;SDS011;61379;59.732;30.468;2023-12-22T02:19:40;20.95;;;12.05;;
73168;SDS011;61379;59.732;30.468;2023-12-22T02:22:08;23.73;;;11.25;;
73168;SDS011;61379;59.732;30.468;2023-12-22T02:24:37;15.38;;;10.52;;
73168;SDS011;61379;59.732;30.468;2023-12-22T02:27:04;14.52;;;9.95;;
73168;SDS011;61379;59.732;30.468;2023-12-22T02:29:32;14.55;;;10.52;;
73168;SDS011;61379;59.732;30.468;2023-12-22T02:32:02;11.27;;;9.25;;
73168;SDS011;61379;59.732;30.468;2023-12-22T02:34:30;16.80;;;10.13;;
73168;SDS011;61379;59.732;30.468;2023-12-22T02:36:57;14.75;;;11.18;;
73168;SDS011;61379;59.732;30.468;2023-12-22T02:39:25;18.30;;;11.30;;
73168;SDS011;61379;59.732;30.468;2023-12-22T02:41:53;15.68;;;11.30;;
73168;SDS011;61379;59.732;30.468;2023-12-22T02:44:20;11.85;;;10.10;;
73168;SDS011;61379;59.732;30.468;2023-12-22T02:46:47;16.70;;;9.80;;
73168;SDS011;61379;59.732;30.468;2023-12-22T02:49:14;12.25;;;9.48;;
73168;SDS011;61379;59.732;30.468;2023-12-22T02:51:42;13.52;;;9.52;;
73168;SDS011;61379;59.732;30.468;2023-12-22T02:54:09;12.05;;;8.80;;
73168;SDS011;61379;59.732;30.468;2023-12-22T02:56:36;10.85;;;8.38;;
73168;SDS011;61379;59.732;30.468;2023-12-22T02:59:04;12.48;;;9.52;;
73168;SDS011;61379;59.732;30.468;2023-12-22T03:01:31;15.95;;;10.82;;
73168;SDS011;61379;59.732;30.468;2023-12-22T03:03:58;13.98;;;9.85;;
73168;SDS011;61379;59.732;30.468;2023-12-22T03:06:25;13.75;;;9.00;;
73168;SDS011;61379;59.732;30.468;2023-12-22T03:08:52;11.80;;;9.05;;
73168;SDS011;61379;59.732;30.468;2023-12-22T03:11:19;13.77;;;10.20;;
73168;SDS011;61379;59.732;30.468;2023-12-22T03:13:46;11.00;;;8.68;;
73168;SDS011;61379;59.732;30.468;2023-12-22T03:16:14;11.77;;;10.02;;
73168;SDS011;61379;59.732;30.468;2023-12-22T03:18:41;14.02;;;10.15;;
73168;SDS011;61379;59.732;30.468;2023-12-22T03:21:08;15.85;;;10.07;;
73168;SDS011;61379;59.732;30.468;2023-12-22T03:23:42;13.02;;;10.10;;
73168;SDS011;61379;59.732;30.468;2023-12-22T03:26:09;10.38;;;9.07;;
73168;SDS011;61379;59.732;30.468;2023-12-22T03:28:36;13.80;;;10.32;;
73168;SDS011;61379;59.732;30.468;2023-12-22T03:31:03;13.75;;;10.68;;
73168;SDS011;61379;59.732;30.468;2023-12-22T03:33:33;10.07;;;9.13;;
73168;SDS011;61379;59.732;30.468;2023-12-22T03:36:01;11.60;;;8.88;;
73168;SDS011;61379;59.732;30.468;2023-12-22T03:38:28;10.60;;;9.18;;
73168;SDS011;61379;59.732;30.468;2023-12-22T03:40:55;11.18;;;9.77;;
73168;SDS011;61379;59.732;30.468;2023-12-22T03:43:22;13.73;;;9.68;;
73168;SDS011;61379;59.732;30.468;2023-12-22T03:45:49;10.45;;;9.40;;
73168;SDS011;61379;59.732;30.468;2023-12-22T03:48:16;16.95;;;10.25;;
73168;SDS011;61379;59.732;30.468;2023-12-22T03:50:44;13.25;;;10.07;;
73168;SDS011;61379;59.732;30.468;2023-12-22T03:53:11;11.45;;;9.60;;
73168;SDS011;61379;59.732;30.468;2023-12-22T03:55:38;13.63;;;10.20;;
73168;SDS011;61379;59.732;30.468;2023-12-22T03:58:05;11.90;;;10.60;;
73168;SDS011;61379;59.732;30.468;2023-12-22T04:00:33;11.02;;;9.75;;
73168;SDS011;61379;59.732;30.468;2023-12-22T04:03:00;11.57;;;9.98;;
73168;SDS011;61379;59.732;30.468;2023-12-22T04:05:27;13.60;;;10.73;;
73168;SDS011;61379;59.732;30.468;2023-12-22T04:07:55;15.68;;;11.02;;
73168;SDS011;61379;59.732;30.468;2023-12-22T04:10:22;11.00;;;9.82;;
73168;SDS011;61379;59.732;30.468;2023-12-22T04:12:49;13.77;;;11.10;;
73168;SDS011;61379;59.732;30.468;2023-12-22T04:15:16;11.35;;;10.35;;
73168;SDS011;61379;59.732;30.468;2023-12-22T04:17:43;15.18;;;11.57;;
73168;SDS011;61379;59.732;30.468;2023-12-22T04:20:10;12.57;;;10.88;;
73168;SDS011;61379;59.732;30.468;2023-12-22T04:22:37;12.43;;;11.27;;
73168;SDS011;61379;59.732;30.468;2023-12-22T04:25:06;12.45;;;11.10;;
73168;SDS011;61379;59.732;30.468;2023-12-22T04:27:34;11.10;;;10.02;;
73168;SDS011;61379;59.732;30.468;2023-12-22T04:30:01;12.85;;;11.30;;
73168;SDS011;61379;59.732;30.468;2023-12-22T04:32:30;12.93;;;11.38;;
73168;SDS011;61379;59.732;30.468;2023-12-22T04:34:57;11.80;;;10.35;;
73168;SDS011;61379;59.732;30.468;2023-12-22T04:37:24;13.05;;;9.90;;
73168;SDS011;61379;59.732;30.468;2023-12-22T04:39:51;12.80;;;10.77;;
73168;SDS011;61379;59.732;30.468;2023-12-22T04:42:20;10.40;;;9.55;;
73168;SDS011;61379;59.732;30.468;2023-12-22T04:44:46;10.40;;;9.43;;
73168;SDS011;61379;59.732;30.468;2023-12-22T04:47:14;13.93;;;10.18;;
73168;SDS011;61379;59.732;30.468;2023-12-22T04:49:41;10.32;;;9.32;;
73168;SDS011;61379;59.732;30.468;2023-12-22T04:52:08;10.15;;;8.88;;
73168;SDS011;61379;59.732;30.468;2023-12-22T04:54:35;13.95;;;10.57;;
73168;SDS011;61379;59.732;30.468;2023-12-22T04:57:02;12.13;;;10.30;;
73168;SDS011;61379;59.732;30.468;2023-12-22T04:59:30;10.20;;;9.23;;
73168;SDS011;61379;59.732;30.468;2023-12-22T05:01:56;11.55;;;10.43;;
73168;SDS011;61379;59.732;30.468;2023-12-22T05:04:23;11.52;;;10.05;;
73168;SDS011;61379;59.732;30.468;2023-12-22T05:06:50;10.80;;;9.52;;
73168;SDS011;61379;59.732;30.468;2023-12-22T05:09:18;15.27;;;11.48;;
73168;SDS011;61379;59.732;30.468;2023-12-22T05:11:45;11.90;;;10.70;;
73168;SDS011;61379;59.732;30.468;2023-12-22T05:14:12;11.05;;;9.95;;
73168;SDS011;61379;59.732;30.468;2023-12-22T05:16:40;11.90;;;10.27;;
73168;SDS011;61379;59.732;30.468;2023-12-22T05:19:07;10.77;;;9.75;;
73168;SDS011;61379;59.732;30.468;2023-12-22T05:21:34;10.50;;;9.13;;
73168;SDS011;61379;59.732;30.468;2023-12-22T05:24:01;10.70;;;9.45;;
73168;SDS011;61379;59.732;30.468;2023-12-22T05:26:28;13.77;;;9.75;;
73168;SDS011;61379;59.732;30.468;2023-12-22T05:28:55;11.95;;;10.43;;
73168;SDS011;61379;59.732;30.468;2023-12-22T05:31:23;11.63;;;10.18;;
73168;SDS011;61379;59.732;30.468;2023-12-22T05:33:51;11.25;;;10.02;;
73168;SDS011;61379;59.732;30.468;2023-12-22T05:36:18;11.63;;;9.52;;
73168;SDS011;61379;59.732;30.468;2023-12-22T05:38:45;11.25;;;9.82;;
73168;SDS011;61379;59.732;30.468;2023-12-22T05:41:13;11.25;;;10.15;;
73168;SDS011;61379;59.732;30.468;2023-12-22T05:43:40;10.05;;;8.98;;
73168;SDS011;61379;59.732;30.468;2023-12-22T05:46:07;12.30;;;9.55;;
73168;SDS011;61379;59.732;30.468;2023-12-22T05:48:35;10.90;;;9.80;;
73168;SDS011;61379;59.732;30.468;2023-12-22T05:51:03;10.35;;;9.23;;
73168;SDS011;61379;59.732;30.468;2023-12-22T05:53:32;10.95;;;9.00;;
73168;SDS011;61379;59.732;30.468;2023-12-22T05:55:59;12.50;;;10.68;;
73168;SDS011;61379;59.732;30.468;2023-12-22T05:58:26;10.57;;;9.38;;
73168;SDS011;61379;59.732;30.468;2023-12-22T06:00:53;10.43;;;9.20;;
73168;SDS011;61379;59.732;30.468;2023-12-22T06:03:20;10.98;;;9.90;;
73168;SDS011;61379;59.732;30.468;2023-12-22T06:05:47;13.38;;;10.10;;
73168;SDS011;61379;59.732;30.468;2023-12-22T06:08:15;11.68;;;10.25;;
73168;SDS011;61379;59.732;30.468;2023-12-22T06:10:42;12.77;;;10.18;;
73168;SDS011;61379;59.732;30.468;2023-12-22T06:13:10;10.57;;;8.65;;
73168;SDS011;61379;59.732;30.468;2023-12-22T06:15:37;11.70;;;10.50;;
73168;SDS011;61379;59.732;30.468;2023-12-22T06:18:04;11.68;;;10.48;;
73168;SDS011;61379;59.732;30.468;2023-12-22T06:20:32;10.60;;;9.38;;
73168;SDS011;61379;59.732;30.468;2023-12-22T06:23:00;13.27;;;9.73;;
73168;SDS011;61379;59.732;30.468;2023-12-22T06:25:28;11.63;;;10.30;;
73168;SDS011;61379;59.732;30.468;2023-12-22T06:27:55;12.60;;;10.48;;
73168;SDS011;61379;59.732;30.468;2023-12-22T06:30:22;10.93;;;9.88;;
73168;SDS011;61379;59.732;30.468;2023-12-22T06:32:49;14.07;;;11.02;;
73168;SDS011;61379;59.732;30.468;2023-12-22T06:35:16;10.88;;;9.77;;
73168;SDS011;61379;59.732;30.468;2023-12-22T06:37:43;12.93;;;11.63;;
73168;SDS011;61379;59.732;30.468;2023-12-22T06:40:10;12.68;;;11.38;;
73168;SDS011;61379;59.732;30.468;2023-12-22T06:42:38;14.30;;;10.98;;
73168;SDS011;61379;59.732;30.468;2023-12-22T06:45:06;11.45;;;10.02;;
73168;SDS011;61379;59.732;30.468;2023-12-22T06:47:33;13.15;;;10.90;;
73168;SDS011;61379;59.732;30.468;2023-12-22T06:50:00;14.68;;;11.45;;
73168;SDS011;61379;59.732;30.468;2023-12-22T06:52:27;11.32;;;10.30;;
73168;SDS011;61379;59.732;30.468;2023-12-22T06:54:55;10.75;;;9.70;;
73168;SDS011;61379;59.732;30.468;2023-12-22T06:57:22;12.90;;;10.95;;
73168;SDS011;61379;59.732;30.468;2023-12-22T06:59:51;10.95;;;9.93;;
73168;SDS011;61379;59.732;30.468;2023-12-22T07:02:18;12.63;;;11.25;;
73168;SDS011;61379;59.732;30.468;2023-12-22T07:07:31;11.13;;;10.20;;
73168;SDS011;61379;59.732;30.468;2023-12-22T07:09:58;13.13;;;11.15;;
73168;SDS011;61379;59.732;30.468;2023-12-22T07:12:25;11.95;;;10.80;;
73168;SDS011;61379;59.732;30.468;2023-12-22T07:14:53;10.77;;;9.88;;
73168;SDS011;61379;59.732;30.468;2023-12-22T07:17:20;10.77;;;9.63;;
73168;SDS011;61379;59.732;30.468;2023-12-22T07:19:47;10.60;;;9.57;;
73168;SDS011;61379;59.732;30.468;2023-12-22T07:22:17;10.73;;;9.63;;
73168;SDS011;61379;59.732;30.468;2023-12-22T07:24:44;12.40;;;9.43;;
73168;SDS011;61379;59.732;30.468;2023-12-22T07:27:11;10.65;;;9.65;;
73168;SDS011;61379;59.732;30.468;2023-12-22T07:29:38;11.30;;;10.05;;
73168;SDS011;61379;59.732;30.468;2023-12-22T07:32:07;11.30;;;10.38;;
73168;SDS011;61379;59.732;30.468;2023-12-22T07:34:33;11.73;;;10.43;;
73168;SDS011;61379;59.732;30.468;2023-12-22T07:37:01;11.45;;;10.23;;
73168;SDS011;61379;59.732;30.468;2023-12-22T07:39:28;14.82;;;12.02;;
73168;SDS011;61379;59.732;30.468;2023-12-22T07:41:54;12.77;;;11.48;;
73168;SDS011;61379;59.732;30.468;2023-12-22T07:44:21;13.43;;;12.07;;
73168;SDS011;61379;59.732;30.468;2023-12-22T07:46:55;11.23;;;10.25;;
73168;SDS011;61379;59.732;30.468;2023-12-22T07:49:24;12.52;;;10.07;;
73168;SDS011;61379;59.732;30.468;2023-12-22T07:51:51;13.93;;;10.48;;
73168;SDS011;61379;59.732;30.468;2023-12-22T07:54:18;12.50;;;11.20;;
73168;SDS011;61379;59.732;30.468;2023-12-22T07:56:46;10.38;;;9.50;;
73168;SDS011;61379;59.732;30.468;2023-12-22T07:59:12;11.48;;;10.38;;
73168;SDS011;61379;59.732;30.468;2023-12-22T08:01:39;10.73;;;9.68;;
73168;SDS011;61379;59.732;30.468;2023-12-22T08:04:06;11.48;;;10.38;;
73168;SDS011;61379;59.732;30.468;2023-12-22T08:06:35;11.18;;;10.23;;
73168;SDS011;61379;59.732;30.468;2023-12-22T08:09:02;9.40;;;8.68;;
73168;SDS011;61379;59.732;30.468;2023-12-22T08:11:29;10.35;;;9.45;;
73168;SDS011;61379;59.732;30.468;2023-12-22T08:13:55;10.18;;;9.25;;
73168;SDS011;61379;59.732;30.468;2023-12-22T08:16:22;10.77;;;9.77;;
73168;SDS011;61379;59.732;30.468;2023-12-22T08:18:49;10.55;;;9.73;;
73168;SDS011;61379;59.732;30.468;2023-12-22T08:21:18;10.18;;;9.30;;
73168;SDS011;61379;59.732;30.468;2023-12-22T08:23:46;9.65;;;8.73;;
73168;SDS011;61379;59.732;30.468;2023-12-22T08:26:13;9.50;;;8.75;;
73168;SDS011;61379;59.732;30.468;2023-12-22T08:28:42;12.13;;;10.70;;
73168;SDS011;61379;59.732;30.468;2023-12-22T08:31:09;10.48;;;9.68;;
73168;SDS011;61379;59.732;30.468;2023-12-22T08:33:37;10.20;;;9.38;;
73168;SDS011;61379;59.732;30.468;2023-12-22T08:36:06;10.73;;;9.80;;
73168;SDS011;61379;59.732;30.468;2023-12-22T08:38:33;10.38;;;9.40;;
73168;SDS011;61379;59.732;30.468;2023-12-22T08:41:01;10.48;;;9.57;;
73168;SDS011;61379;59.732;30.468;2023-12-22T08:43:28;10.90;;;9.82;;
73168;SDS011;61379;59.732;30.468;2023-12-22T08:45:55;10.68;;;9.82;;
73168;SDS011;61379;59.732;30.468;2023-12-22T08:48:22;11.73;;;10.20;;
73168;SDS011;61379;59.732;30.468;2023-12-22T08:50:49;10.35;;;9.50;;
73168;SDS011;61379;59.732;30.468;2023-12-22T08:53:16;11.07;;;10.07;;
73168;SDS011;61379;59.732;30.468;2023-12-22T08:55:43;9.52;;;8.80;;
73168;SDS011;61379;59.732;30.468;2023-12-22T08:58:12;10.88;;;9.90;;
73168;SDS011;61379;59.732;30.468;2023-12-22T09:00:39;11.27;;;10.35;;
73168;SDS011;61379;59.732;30.468;2023-12-22T09:03:07;10.85;;;9.95;;
73168;SDS011;61379;59.732;30.468;2023-12-22T09:05:33;11.07;;;10.18;;
73168;SDS011;61379;59.732;30.468;2023-12-22T09:08:00;10.77;;;9.82;;
73168;SDS011;61379;59.732;30.468;2023-12-22T09:10:27;11.13;;;9.85;;
73168;SDS011;61379;59.732;30.468;2023-12-22T09:12:54;9.82;;;9.02;;
73168;SDS011;61379;59.732;30.468;2023-12-22T09:15:23;10.32;;;9.45;;
73168;SDS011;61379;59.732;30.468;2023-12-22T09:17:49;10.45;;;9.65;;
73168;SDS011;61379;59.732;30.468;2023-12-22T09:20:17;12.15;;;11.05;;
73168;SDS011;61379;59.732;30.468;2023-12-22T09:22:44;10.52;;;9.57;;
73168;SDS011;61379;59.732;30.468;2023-12-22T09:25:11;10.30;;;9.50;;
73168;SDS011;61379;59.732;30.468;2023-12-22T09:27:38;12.73;;;11.40;;
73168;SDS011;61379;59.732;30.468;2023-12-22T09:30:06;9.95;;;9.18;;
73168;SDS011;61379;59.732;30.468;2023-12-22T09:32:34;10.85;;;9.98;;
73168;SDS011;61379;59.732;30.468;2023-12-22T09:35:01;10.80;;;9.75;;
73168;SDS011;61379;59.732;30.468;2023-12-22T09:37:29;10.85;;;10.05;;
73168;SDS011;61379;59.732;30.468;2023-12-22T09:39:56;11.30;;;10.25;;
73168;SDS011;61379;59.732;30.468;2023-12-22T09:42:23;10.57;;;9.73;;
73168;SDS011;61379;59.732;30.468;2023-12-22T09:44:52;11.18;;;10.27;;
73168;SDS011;61379;59.732;30.468;2023-12-22T09:47:19;10.45;;;9.52;;
73168;SDS011;61379;59.732;30.468;2023-12-22T09:49:49;10.82;;;10.02;;
73168;SDS011;61379;59.732;30.468;2023-12-22T09:52:16;10.45;;;9.65;;
73168;SDS011;61379;59.732;30.468;2023-12-22T09:54:43;12.30;;;11.23;;
73168;SDS011;61379;59.732;30.468;2023-12-22T09:57:11;11.45;;;10.65;;
73168;SDS011;61379;59.732;30.468;2023-12-22T09:59:38;11.85;;;11.02;;
73168;SDS011;61379;59.732;30.468;2023-12-22T10:02:05;10.38;;;9.68;;
73168;SDS011;61379;59.732;30.468;2023-12-22T10:04:33;9.95;;;9.25;;
73168;SDS011;61379;59.732;30.468;2023-12-22T10:07:01;9.25;;;8.50;;
73168;SDS011;61379;59.732;30.468;2023-12-22T10:09:29;10.75;;;9.95;;
73168;SDS011;61379;59.732;30.468;2023-12-22T10:11:57;10.82;;;10.13;;
73168;SDS011;61379;59.732;30.468;2023-12-22T10:14:25;10.63;;;9.98;;
73168;SDS011;61379;59.732;30.468;2023-12-22T10:16:52;10.13;;;9.43;;
73168;SDS011;61379;59.732;30.468;2023-12-22T10:19:19;11.95;;;10.88;;
73168;SDS011;61379;59.732;30.468;2023-12-22T10:21:47;10.73;;;9.98;;
73168;SDS011;61379;59.732;30.468;2023-12-22T10:26:56;10.07;;;9.20;;
73168;SDS011;61379;59.732;30.468;2023-12-22T10:29:24;10.25;;;9.43;;
73168;SDS011;61379;59.732;30.468;2023-12-22T10:31:51;10.55;;;9.63;;
73168;SDS011;61379;59.732;30.468;2023-12-22T10:34:18;10.60;;;9.90;;
73168;SDS011;61379;59.732;30.468;2023-12-22T10:36:45;9.73;;;9.13;;
73168;SDS011;61379;59.732;30.468;2023-12-22T10:41:41;12.07;;;9.25;;
73168;SDS011;61379;59.732;30.468;2023-12-22T10:44:10;11.20;;;10.30;;
73168;SDS011;61379;59.732;30.468;2023-12-22T10:46:37;11.15;;;10.25;;
73168;SDS011;61379;59.732;30.468;2023-12-22T10:49:04;10.48;;;9.77;;
73168;SDS011;61379;59.732;30.468;2023-12-22T10:51:30;10.23;;;9.52;;
73168;SDS011;61379;59.732;30.468;2023-12-22T10:53:58;10.32;;;9.52;;
73168;SDS011;61379;59.732;30.468;2023-12-22T10:56:25;9.52;;;8.82;;
73168;SDS011;61379;59.732;30.468;2023-12-22T10:58:53;9.80;;;9.20;;
73168;SDS011;61379;59.732;30.468;2023-12-22T11:01:22;10.10;;;9.50;;
73168;SDS011;61379;59.732;30.468;2023-12-22T11:03:51;10.32;;;9.63;;
73168;SDS011;61379;59.732;30.468;2023-12-22T11:06:18;9.90;;;9.20;;
73168;SDS011;61379;59.732;30.468;2023-12-22T11:08:46;9.77;;;9.18;;
73168;SDS011;61379;59.732;30.468;2023-12-22T11:11:15;10.40;;;9.65;;
73168;SDS011;61379;59.732;30.468;2023-12-22T11:13:43;10.73;;;10.02;;
73168;SDS011;61379;59.732;30.468;2023-12-22T11:16:10;11.25;;;10.25;;
73168;SDS011;61379;59.732;30.468;2023-12-22T11:18:39;10.55;;;9.68;;
73168;SDS011;61379;59.732;30.468;2023-12-22T11:21:07;11.02;;;10.13;;
73168;SDS011;61379;59.732;30.468;2023-12-22T11:23:36;10.80;;;10.00;;
73168;SDS011;61379;59.732;30.468;2023-12-22T11:26:04;10.35;;;9.70;;
73168;SDS011;61379;59.732;30.468;2023-12-22T11:28:31;10.40;;;9.70;;
73168;SDS011;61379;59.732;30.468;2023-12-22T11:30:59;10.55;;;9.85;;
73168;SDS011;61379;59.732;30.468;2023-12-22T11:33:27;10.45;;;9.65;;
73168;SDS011;61379;59.732;30.468;2023-12-22T11:35:57;9.88;;;9.18;;
73168;SDS011;61379;59.732;30.468;2023-12-22T11:38:24;10.85;;;10.10;;
73168;SDS011;61379;59.732;30.468;2023-12-22T11:40:51;10.52;;;9.82;;
73168;SDS011;61379;59.732;30.468;2023-12-22T11:43:19;9.80;;;9.20;;
73168;SDS011;61379;59.732;30.468;2023-12-22T11:45:48;10.52;;;9.63;;
73168;SDS011;61379;59.732;30.468;2023-12-22T11:48:15;10.05;;;9.35;;
73168;SDS011;61379;59.732;30.468;2023-12-22T11:50:42;10.05;;;9.35;;
73168;SDS011;61379;59.732;30.468;2023-12-22T11:53:21;10.43;;;9.63;;
73168;SDS011;61379;59.732;30.468;2023-12-22T11:55:58;10.32;;;9.60;;
73168;SDS011;61379;59.732;30.468;2023-12-22T11:58:37;10.45;;;9.77;;
73168;SDS011;61379;59.732;30.468;2023-12-22T12:01:05;11.75;;;10.85;;
73168;SDS011;61379;59.732;30.468;2023-12-22T12:03:32;10.75;;;10.05;;
73168;SDS011;61379;59.732;30.468;2023-12-22T12:06:14;11.00;;;10.20;;
73168;SDS011;61379;59.732;30.468;2023-12-22T12:11:09;10.95;;;10.20;;
73168;SDS011;61379;59.732;30.468;2023-12-22T12:13:38;9.55;;;8.95;;
73168;SDS011;61379;59.732;30.468;2023-12-22T12:16:07;11.02;;;10.32;;
73168;SDS011;61379;59.732;30.468;2023-12-22T12:18:34;10.63;;;9.93;;
73168;SDS011;61379;59.732;30.468;2023-12-22T12:21:02;10.20;;;9.52;;
73168;SDS011;61379;59.732;30.468;2023-12-22T12:23:29;9.93;;;9.23;;
73168;SDS011;61379;59.732;30.468;2023-12-22T12:25:56;10.98;;;10.15;;
73168;SDS011;61379;59.732;30.468;2023-12-22T12:28:26;10.13;;;9.43;;
73168;SDS011;61379;59.732;30.468;2023-12-22T12:30:56;10.40;;;9.70;;
73168;SDS011;61379;59.732;30.468;2023-12-22T12:33:24;10.18;;;9.50;;
73168;SDS011;61379;59.732;30.468;2023-12-22T12:35:52;11.85;;;11.02;;
73168;SDS011;61379;59.732;30.468;2023-12-22T12:38:19;10.00;;;9.40;;
73168;SDS011;61379;59.732;30.468;2023-12-22T12:40:48;9.75;;;9.05;;
73168;SDS011;61379;59.732;30.468;2023-12-22T12:43:16;9.32;;;8.75;;
73168;SDS011;61379;59.732;30.468;2023-12-22T12:45:46;8.98;;;8.38;;
73168;SDS011;61379;59.732;30.468;2023-12-22T12:48:13;9.70;;;9.00;;
73168;SDS011;61379;59.732;30.468;2023-12-22T12:50:42;9.95;;;9.25;;
73168;SDS011;61379;59.732;30.468;2023-12-22T12:53:09;8.90;;;8.30;;
73168;SDS011;61379;59.732;30.468;2023-12-22T12:55:36;9.20;;;8.60;;
73168;SDS011;61379;59.732;30.468;2023-12-22T12:58:03;10.43;;;9.05;;
73168;SDS011;61379;59.732;30.468;2023-12-22T13:00:31;9.73;;;9.02;;
73168;SDS011;61379;59.732;30.468;2023-12-22T13:03:01;9.20;;;8.60;;
73168;SDS011;61379;59.732;30.468;2023-12-22T13:05:29;10.13;;;9.48;;
73168;SDS011;61379;59.732;30.468;2023-12-22T13:08:05;9.55;;;8.85;;
73168;SDS011;61379;59.732;30.468;2023-12-22T13:10:32;10.15;;;9.23;;
73168;SDS011;61379;59.732;30.468;2023-12-22T13:13:00;13.50;;;12.20;;
73168;SDS011;61379;59.732;30.468;2023-12-22T13:15:27;10.82;;;10.00;;
73168;SDS011;61379;59.732;30.468;2023-12-22T13:17:54;10.32;;;9.43;;
73168;SDS011;61379;59.732;30.468;2023-12-22T13:20:23;10.90;;;9.90;;
73168;SDS011;61379;59.732;30.468;2023-12-22T13:22:50;10.40;;;9.60;;
73168;SDS011;61379;59.732;30.468;2023-12-22T13:25:17;10.48;;;9.68;;
73168;SDS011;61379;59.732;30.468;2023-12-22T13:27:46;10.55;;;9.85;;
73168;SDS011;61379;59.732;30.468;2023-12-22T13:30:13;9.27;;;8.48;;
73168;SDS011;61379;59.732;30.468;2023-12-22T13:32:40;9.73;;;9.02;;
73168;SDS011;61379;59.732;30.468;2023-12-22T13:35:08;10.85;;;9.98;;
73168;SDS011;61379;59.732;30.468;2023-12-22T13:37:41;10.18;;;9.45;;
73168;SDS011;61379;59.732;30.468;2023-12-22T13:40:09;9.65;;;8.98;;
73168;SDS011;61379;59.732;30.468;2023-12-22T13:42:36;10.43;;;9.73;;
73168;SDS011;61379;59.732;30.468;2023-12-22T13:45:04;11.10;;;10.30;;
73168;SDS011;61379;59.732;30.468;2023-12-22T13:47:39;10.63;;;9.82;;
73168;SDS011;61379;59.732;30.468;2023-12-22T13:50:12;9.80;;;9.20;;
73168;SDS011;61379;59.732;30.468;2023-12-22T13:52:42;10.52;;;9.82;;
73168;SDS011;61379;59.732;30.468;2023-12-22T13:55:11;10.32;;;9.60;;
73168;SDS011;61379;59.732;30.468;2023-12-22T13:57:48;10.98;;;10.18;;
73168;SDS011;61379;59.732;30.468;2023-12-22T14:00:24;10.77;;;9.85;;
73168;SDS011;61379;59.732;30.468;2023-12-22T14:02:51;10.30;;;9.65;;
73168;SDS011;61379;59.732;30.468;2023-12-22T14:05:19;10.80;;;10.00;;
73168;SDS011;61379;59.732;30.468;2023-12-22T14:07:47;10.60;;;9.90;;
73168;SDS011;61379;59.732;30.468;2023-12-22T14:10:14;10.45;;;9.55;;
73168;SDS011;61379;59.732;30.468;2023-12-22T14:12:41;10.93;;;10.13;;
73168;SDS011;61379;59.732;30.468;2023-12-22T14:15:09;11.50;;;10.60;;
73168;SDS011;61379;59.732;30.468;2023-12-22T14:17:36;11.35;;;10.55;;
73168;SDS011;61379;59.732;30.468;2023-12-22T14:20:03;11.05;;;10.05;;
73168;SDS011;61379;59.732;30.468;2023-12-22T14:22:33;11.38;;;10.48;;
73168;SDS011;61379;59.732;30.468;2023-12-22T14:25:02;11.30;;;10.40;;
73168;SDS011;61379;59.732;30.468;2023-12-22T14:27:29;11.23;;;10.35;;
73168;SDS011;61379;59.732;30.468;2023-12-22T14:29:57;11.45;;;10.55;;